Weather at SUEM Heliport Treviso

Public forecast

Using degrees Celsius for public forecast. Weather courtesy of forecast.io.

Closest aviation weather report (METAR) to SUEM Heliport Treviso

Closest report is Treviso Antonio Canova Airport, 2.9 nm (5.4 km) W.

2024/07/17 09:50 (retrieved 33 minutes ago)

LIPH 170950Z 08008KT 050V110 CAVOK 32/20 Q1014

Closest aviation forecast (TAF) to SUEM Heliport Treviso

Closest forecast is Treviso Antonio Canova Airport, 2.9 nm (5.4 km) W.

2024/07/17 06:21 (retrieved 4 hours ago)

TAF LIPH 170500Z 1706/1806 VRB05KT CAVOK BECMG 1707/1709 07010KT BECMG 1712/1714 VRB05KT